sensor_id;sensor_type;location;lat;lon;timestamp;P1;durP1;ratioP1;P2;durP2;ratioP2
54517;SDS011;40423;53.176;6.002;2023-04-25T00:02:04;19.98;;;3.75;;
54517;SDS011;40423;53.176;6.002;2023-04-25T00:04:30;20.98;;;4.57;;
54517;SDS011;40423;53.176;6.002;2023-04-25T00:06:58;13.60;;;3.90;;
54517;SDS011;40423;53.176;6.002;2023-04-25T00:09:26;15.40;;;3.58;;
54517;SDS011;40423;53.176;6.002;2023-04-25T00:11:52;15.32;;;3.72;;
54517;SDS011;40423;53.176;6.002;2023-04-25T00:14:18;19.13;;;4.28;;
54517;SDS011;40423;53.176;6.002;2023-04-25T00:16:44;16.27;;;4.40;;
54517;SDS011;40423;53.176;6.002;2023-04-25T00:19:10;15.38;;;4.30;;
54517;SDS011;40423;53.176;6.002;2023-04-25T00:21:36;13.75;;;3.17;;
54517;SDS011;40423;53.176;6.002;2023-04-25T00:24:05;24.27;;;3.92;;
54517;SDS011;40423;53.176;6.002;2023-04-25T00:26:33;18.67;;;4.15;;
54517;SDS011;40423;53.176;6.002;2023-04-25T00:29:00;16.40;;;3.63;;
54517;SDS011;40423;53.176;6.002;2023-04-25T00:31:26;19.42;;;4.32;;
54517;SDS011;40423;53.176;6.002;2023-04-25T00:33:51;17.02;;;3.25;;
54517;SDS011;40423;53.176;6.002;2023-04-25T00:36:18;19.35;;;3.42;;
54517;SDS011;40423;53.176;6.002;2023-04-25T00:38:44;14.32;;;3.33;;
54517;SDS011;40423;53.176;6.002;2023-04-25T00:41:09;16.52;;;3.55;;
54517;SDS011;40423;53.176;6.002;2023-04-25T00:43:36;21.75;;;4.25;;
54517;SDS011;40423;53.176;6.002;2023-04-25T00:46:02;18.40;;;3.30;;
54517;SDS011;40423;53.176;6.002;2023-04-25T00:48:28;30.55;;;4.28;;
54517;SDS011;40423;53.176;6.002;2023-04-25T00:50:55;16.77;;;4.32;;
54517;SDS011;40423;53.176;6.002;2023-04-25T00:53:23;14.40;;;4.05;;
54517;SDS011;40423;53.176;6.002;2023-04-25T00:55:50;20.00;;;3.78;;
54517;SDS011;40423;53.176;6.002;2023-04-25T00:58:17;17.40;;;4.22;;
54517;SDS011;40423;53.176;6.002;2023-04-25T01:00:43;23.45;;;4.00;;
54517;SDS011;40423;53.176;6.002;2023-04-25T01:03:13;23.20;;;4.45;;
54517;SDS011;40423;53.176;6.002;2023-04-25T01:05:41;18.63;;;4.90;;
54517;SDS011;40423;53.176;6.002;2023-04-25T01:08:07;16.70;;;3.40;;
54517;SDS011;40423;53.176;6.002;2023-04-25T01:10:33;13.48;;;5.10;;
54517;SDS011;40423;53.176;6.002;2023-04-25T01:12:58;15.38;;;3.38;;
54517;SDS011;40423;53.176;6.002;2023-04-25T01:15:24;13.77;;;4.32;;
54517;SDS011;40423;53.176;6.002;2023-04-25T01:17:50;12.98;;;3.00;;
54517;SDS011;40423;53.176;6.002;2023-04-25T01:20:16;13.35;;;3.00;;
54517;SDS011;40423;53.176;6.002;2023-04-25T01:22:42;17.58;;;3.03;;
54517;SDS011;40423;53.176;6.002;2023-04-25T01:25:08;15.20;;;2.78;;
54517;SDS011;40423;53.176;6.002;2023-04-25T01:27:36;18.52;;;4.07;;
54517;SDS011;40423;53.176;6.002;2023-04-25T01:30:02;13.50;;;2.75;;
54517;SDS011;40423;53.176;6.002;2023-04-25T01:32:29;10.85;;;2.60;;
54517;SDS011;40423;53.176;6.002;2023-04-25T01:37:41;12.38;;;2.55;;
54517;SDS011;40423;53.176;6.002;2023-04-25T01:40:08;9.68;;;2.47;;
54517;SDS011;40423;53.176;6.002;2023-04-25T01:42:36;7.78;;;1.83;;
54517;SDS011;40423;53.176;6.002;2023-04-25T01:45:03;14.48;;;2.70;;
54517;SDS011;40423;53.176;6.002;2023-04-25T01:47:29;13.10;;;2.80;;
54517;SDS011;40423;53.176;6.002;2023-04-25T01:49:55;15.57;;;2.95;;
54517;SDS011;40423;53.176;6.002;2023-04-25T01:52:21;8.88;;;2.35;;
54517;SDS011;40423;53.176;6.002;2023-04-25T01:54:47;15.18;;;2.58;;
54517;SDS011;40423;53.176;6.002;2023-04-25T01:57:13;8.88;;;2.10;;
54517;SDS011;40423;53.176;6.002;2023-04-25T01:59:39;9.77;;;2.70;;
54517;SDS011;40423;53.176;6.002;2023-04-25T02:02:06;26.25;;;3.85;;
54517;SDS011;40423;53.176;6.002;2023-04-25T02:04:32;10.70;;;2.30;;
54517;SDS011;40423;53.176;6.002;2023-04-25T02:06:58;15.82;;;3.83;;
54517;SDS011;40423;53.176;6.002;2023-04-25T02:09:24;12.90;;;2.92;;
54517;SDS011;40423;53.176;6.002;2023-04-25T02:11:50;16.73;;;3.55;;
54517;SDS011;40423;53.176;6.002;2023-04-25T02:14:16;14.93;;;2.88;;
54517;SDS011;40423;53.176;6.002;2023-04-25T02:16:41;13.75;;;2.90;;
54517;SDS011;40423;53.176;6.002;2023-04-25T02:19:09;15.05;;;3.33;;
54517;SDS011;40423;53.176;6.002;2023-04-25T02:21:35;14.95;;;2.92;;
54517;SDS011;40423;53.176;6.002;2023-04-25T02:24:01;10.63;;;2.80;;
54517;SDS011;40423;53.176;6.002;2023-04-25T02:26:28;17.20;;;3.28;;
54517;SDS011;40423;53.176;6.002;2023-04-25T02:28:53;15.38;;;3.00;;
54517;SDS011;40423;53.176;6.002;2023-04-25T02:31:19;15.40;;;2.78;;
54517;SDS011;40423;53.176;6.002;2023-04-25T02:33:45;15.15;;;2.72;;
54517;SDS011;40423;53.176;6.002;2023-04-25T02:36:11;11.27;;;2.55;;
54517;SDS011;40423;53.176;6.002;2023-04-25T02:38:37;9.73;;;2.88;;
54517;SDS011;40423;53.176;6.002;2023-04-25T02:41:03;11.02;;;2.40;;
54517;SDS011;40423;53.176;6.002;2023-04-25T02:43:29;11.45;;;2.75;;
54517;SDS011;40423;53.176;6.002;2023-04-25T02:45:54;9.25;;;1.60;;
54517;SDS011;40423;53.176;6.002;2023-04-25T02:48:20;8.00;;;2.25;;
54517;SDS011;40423;53.176;6.002;2023-04-25T02:50:46;8.55;;;2.03;;
54517;SDS011;40423;53.176;6.002;2023-04-25T02:53:11;6.78;;;1.77;;
54517;SDS011;40423;53.176;6.002;2023-04-25T02:55:37;5.70;;;1.40;;
54517;SDS011;40423;53.176;6.002;2023-04-25T02:58:05;6.97;;;1.55;;
54517;SDS011;40423;53.176;6.002;2023-04-25T03:00:32;5.07;;;1.30;;
54517;SDS011;40423;53.176;6.002;2023-04-25T03:02:58;6.85;;;1.48;;
54517;SDS011;40423;53.176;6.002;2023-04-25T03:05:23;11.52;;;1.63;;
54517;SDS011;40423;53.176;6.002;2023-04-25T03:07:49;9.75;;;2.53;;
54517;SDS011;40423;53.176;6.002;2023-04-25T03:10:15;11.00;;;1.80;;
54517;SDS011;40423;53.176;6.002;2023-04-25T03:12:40;12.05;;;3.00;;
54517;SDS011;40423;53.176;6.002;2023-04-25T03:15:06;9.88;;;1.70;;
54517;SDS011;40423;53.176;6.002;2023-04-25T03:17:32;14.93;;;2.20;;
54517;SDS011;40423;53.176;6.002;2023-04-25T03:19:58;8.70;;;2.20;;
54517;SDS011;40423;53.176;6.002;2023-04-25T03:22:24;10.90;;;2.05;;
54517;SDS011;40423;53.176;6.002;2023-04-25T03:24:50;14.27;;;2.28;;
54517;SDS011;40423;53.176;6.002;2023-04-25T03:27:16;9.07;;;1.90;;
54517;SDS011;40423;53.176;6.002;2023-04-25T03:29:42;11.60;;;3.28;;
54517;SDS011;40423;53.176;6.002;2023-04-25T03:32:08;13.60;;;2.25;;
54517;SDS011;40423;53.176;6.002;2023-04-25T03:34:34;17.20;;;2.40;;
54517;SDS011;40423;53.176;6.002;2023-04-25T03:37:00;17.63;;;2.40;;
54517;SDS011;40423;53.176;6.002;2023-04-25T03:39:26;17.33;;;2.45;;
54517;SDS011;40423;53.176;6.002;2023-04-25T03:41:51;16.00;;;2.78;;
54517;SDS011;40423;53.176;6.002;2023-04-25T03:44:17;11.65;;;2.65;;
54517;SDS011;40423;53.176;6.002;2023-04-25T03:46:43;14.73;;;3.60;;
54517;SDS011;40423;53.176;6.002;2023-04-25T03:49:09;10.68;;;2.47;;
54517;SDS011;40423;53.176;6.002;2023-04-25T03:51:34;13.77;;;2.78;;
54517;SDS011;40423;53.176;6.002;2023-04-25T03:54:00;17.92;;;3.08;;
54517;SDS011;40423;53.176;6.002;2023-04-25T03:56:26;21.92;;;3.83;;
54517;SDS011;40423;53.176;6.002;2023-04-25T03:58:51;11.43;;;2.60;;
54517;SDS011;40423;53.176;6.002;2023-04-25T04:01:17;12.35;;;2.72;;
54517;SDS011;40423;53.176;6.002;2023-04-25T04:03:43;12.02;;;2.72;;
54517;SDS011;40423;53.176;6.002;2023-04-25T04:06:08;11.95;;;2.58;;
54517;SDS011;40423;53.176;6.002;2023-04-25T04:08:35;17.90;;;3.08;;
54517;SDS011;40423;53.176;6.002;2023-04-25T04:11:01;17.20;;;3.85;;
54517;SDS011;40423;53.176;6.002;2023-04-25T04:13:27;16.10;;;2.95;;
54517;SDS011;40423;53.176;6.002;2023-04-25T04:15:54;16.85;;;2.22;;
54517;SDS011;40423;53.176;6.002;2023-04-25T04:18:20;14.23;;;2.33;;
54517;SDS011;40423;53.176;6.002;2023-04-25T04:20:46;15.95;;;2.75;;
54517;SDS011;40423;53.176;6.002;2023-04-25T04:23:12;12.52;;;2.90;;
54517;SDS011;40423;53.176;6.002;2023-04-25T04:25:38;13.70;;;2.75;;
54517;SDS011;40423;53.176;6.002;2023-04-25T04:28:05;15.73;;;2.20;;
54517;SDS011;40423;53.176;6.002;2023-04-25T04:30:31;17.10;;;2.67;;
54517;SDS011;40423;53.176;6.002;2023-04-25T04:32:58;17.05;;;3.00;;
54517;SDS011;40423;53.176;6.002;2023-04-25T04:35:24;11.48;;;2.28;;
54517;SDS011;40423;53.176;6.002;2023-04-25T04:37:50;17.95;;;3.60;;
54517;SDS011;40423;53.176;6.002;2023-04-25T04:40:16;12.18;;;2.53;;
54517;SDS011;40423;53.176;6.002;2023-04-25T04:42:42;16.10;;;3.50;;
54517;SDS011;40423;53.176;6.002;2023-04-25T04:45:10;11.05;;;2.08;;
54517;SDS011;40423;53.176;6.002;2023-04-25T04:47:37;8.95;;;2.22;;
54517;SDS011;40423;53.176;6.002;2023-04-25T04:50:05;9.48;;;2.00;;
54517;SDS011;40423;53.176;6.002;2023-04-25T04:52:35;8.38;;;2.35;;
54517;SDS011;40423;53.176;6.002;2023-04-25T04:55:01;10.60;;;2.30;;
54517;SDS011;40423;53.176;6.002;2023-04-25T04:57:29;11.38;;;2.70;;
54517;SDS011;40423;53.176;6.002;2023-04-25T04:59:55;15.02;;;2.13;;
54517;SDS011;40423;53.176;6.002;2023-04-25T05:02:20;16.00;;;2.10;;
54517;SDS011;40423;53.176;6.002;2023-04-25T05:04:46;10.20;;;2.28;;
54517;SDS011;40423;53.176;6.002;2023-04-25T05:07:12;8.02;;;2.05;;
54517;SDS011;40423;53.176;6.002;2023-04-25T05:09:38;13.15;;;2.38;;
54517;SDS011;40423;53.176;6.002;2023-04-25T05:12:04;9.02;;;1.90;;
54517;SDS011;40423;53.176;6.002;2023-04-25T05:14:30;7.13;;;1.90;;
54517;SDS011;40423;53.176;6.002;2023-04-25T05:16:55;12.48;;;2.40;;
54517;SDS011;40423;53.176;6.002;2023-04-25T05:19:21;11.55;;;2.10;;
54517;SDS011;40423;53.176;6.002;2023-04-25T05:21:47;12.68;;;2.33;;
54517;SDS011;40423;53.176;6.002;2023-04-25T05:24:13;9.93;;;2.15;;
54517;SDS011;40423;53.176;6.002;2023-04-25T05:26:39;9.45;;;1.90;;
54517;SDS011;40423;53.176;6.002;2023-04-25T05:29:04;11.40;;;2.17;;
54517;SDS011;40423;53.176;6.002;2023-04-25T05:31:31;11.73;;;2.15;;
54517;SDS011;40423;53.176;6.002;2023-04-25T05:33:57;9.48;;;2.65;;
54517;SDS011;40423;53.176;6.002;2023-04-25T05:36:23;21.45;;;2.88;;
54517;SDS011;40423;53.176;6.002;2023-04-25T05:38:48;15.90;;;3.88;;
54517;SDS011;40423;53.176;6.002;2023-04-25T05:41:14;15.70;;;3.22;;
54517;SDS011;40423;53.176;6.002;2023-04-25T05:43:40;10.63;;;2.40;;
54517;SDS011;40423;53.176;6.002;2023-04-25T05:46:10;13.73;;;2.45;;
54517;SDS011;40423;53.176;6.002;2023-04-25T05:48:37;10.77;;;2.10;;
54517;SDS011;40423;53.176;6.002;2023-04-25T05:51:03;17.60;;;2.22;;
54517;SDS011;40423;53.176;6.002;2023-04-25T05:53:29;11.32;;;1.98;;
54517;SDS011;40423;53.176;6.002;2023-04-25T05:55:54;6.55;;;1.40;;
54517;SDS011;40423;53.176;6.002;2023-04-25T05:58:20;9.82;;;2.35;;
54517;SDS011;40423;53.176;6.002;2023-04-25T06:00:46;7.05;;;1.58;;
54517;SDS011;40423;53.176;6.002;2023-04-25T06:03:12;15.23;;;2.17;;
54517;SDS011;40423;53.176;6.002;2023-04-25T06:05:43;13.30;;;2.13;;
54517;SDS011;40423;53.176;6.002;2023-04-25T06:08:09;8.00;;;2.13;;
54517;SDS011;40423;53.176;6.002;2023-04-25T06:10:35;6.32;;;1.90;;
54517;SDS011;40423;53.176;6.002;2023-04-25T06:13:01;6.95;;;1.73;;
54517;SDS011;40423;53.176;6.002;2023-04-25T06:15:27;7.15;;;1.70;;
54517;SDS011;40423;53.176;6.002;2023-04-25T06:17:53;5.95;;;1.05;;
54517;SDS011;40423;53.176;6.002;2023-04-25T06:20:21;7.60;;;1.50;;
54517;SDS011;40423;53.176;6.002;2023-04-25T06:22:49;12.05;;;1.95;;
54517;SDS011;40423;53.176;6.002;2023-04-25T06:25:15;11.80;;;1.50;;
54517;SDS011;40423;53.176;6.002;2023-04-25T06:27:41;9.65;;;1.98;;
54517;SDS011;40423;53.176;6.002;2023-04-25T06:30:07;10.55;;;1.73;;
54517;SDS011;40423;53.176;6.002;2023-04-25T06:32:33;13.30;;;1.65;;
54517;SDS011;40423;53.176;6.002;2023-04-25T06:34:59;7.80;;;1.83;;
54517;SDS011;40423;53.176;6.002;2023-04-25T06:37:25;9.35;;;2.30;;
54517;SDS011;40423;53.176;6.002;2023-04-25T06:39:51;12.95;;;1.48;;
54517;SDS011;40423;53.176;6.002;2023-04-25T06:42:17;9.10;;;2.03;;
54517;SDS011;40423;53.176;6.002;2023-04-25T06:44:45;18.65;;;2.00;;
54517;SDS011;40423;53.176;6.002;2023-04-25T06:47:11;10.88;;;1.98;;
54517;SDS011;40423;53.176;6.002;2023-04-25T06:49:37;10.43;;;2.10;;
54517;SDS011;40423;53.176;6.002;2023-04-25T06:52:02;8.07;;;1.75;;
54517;SDS011;40423;53.176;6.002;2023-04-25T06:54:28;11.05;;;1.83;;
54517;SDS011;40423;53.176;6.002;2023-04-25T06:56:55;10.63;;;1.70;;
54517;SDS011;40423;53.176;6.002;2023-04-25T06:59:21;8.90;;;1.42;;
54517;SDS011;40423;53.176;6.002;2023-04-25T07:01:47;6.97;;;1.65;;
54517;SDS011;40423;53.176;6.002;2023-04-25T07:04:13;6.90;;;1.20;;
54517;SDS011;40423;53.176;6.002;2023-04-25T07:06:39;4.93;;;1.40;;
54517;SDS011;40423;53.176;6.002;2023-04-25T07:09:10;3.42;;;1.08;;
54517;SDS011;40423;53.176;6.002;2023-04-25T07:11:37;1.33;;;0.80;;
54517;SDS011;40423;53.176;6.002;2023-04-25T07:14:03;4.18;;;0.93;;
54517;SDS011;40423;53.176;6.002;2023-04-25T07:16:28;4.82;;;1.20;;
54517;SDS011;40423;53.176;6.002;2023-04-25T07:18:54;8.13;;;1.55;;
54517;SDS011;40423;53.176;6.002;2023-04-25T07:21:20;6.68;;;1.40;;
54517;SDS011;40423;53.176;6.002;2023-04-25T07:23:46;5.40;;;1.48;;
54517;SDS011;40423;53.176;6.002;2023-04-25T07:26:12;4.97;;;1.67;;
54517;SDS011;40423;53.176;6.002;2023-04-25T07:28:38;9.05;;;1.90;;
54517;SDS011;40423;53.176;6.002;2023-04-25T07:31:04;8.05;;;1.55;;
54517;SDS011;40423;53.176;6.002;2023-04-25T07:33:30;10.05;;;1.80;;
54517;SDS011;40423;53.176;6.002;2023-04-25T07:35:56;9.63;;;1.83;;
54517;SDS011;40423;53.176;6.002;2023-04-25T07:38:22;12.68;;;2.05;;
54517;SDS011;40423;53.176;6.002;2023-04-25T07:40:48;9.32;;;1.75;;
54517;SDS011;40423;53.176;6.002;2023-04-25T07:43:14;9.65;;;1.70;;
54517;SDS011;40423;53.176;6.002;2023-04-25T07:45:45;9.88;;;1.33;;
54517;SDS011;40423;53.176;6.002;2023-04-25T07:48:11;11.07;;;2.03;;
54517;SDS011;40423;53.176;6.002;2023-04-25T07:50:42;9.07;;;1.90;;
54517;SDS011;40423;53.176;6.002;2023-04-25T07:53:08;12.45;;;2.00;;
54517;SDS011;40423;53.176;6.002;2023-04-25T07:55:34;12.02;;;2.20;;
54517;SDS011;40423;53.176;6.002;2023-04-25T07:58:01;12.23;;;2.17;;
54517;SDS011;40423;53.176;6.002;2023-04-25T08:00:28;12.77;;;2.00;;
54517;SDS011;40423;53.176;6.002;2023-04-25T08:02:54;8.68;;;1.45;;
54517;SDS011;40423;53.176;6.002;2023-04-25T08:05:19;7.32;;;2.30;;
54517;SDS011;40423;53.176;6.002;2023-04-25T08:07:45;8.82;;;1.98;;
54517;SDS011;40423;53.176;6.002;2023-04-25T08:10:11;11.32;;;1.85;;
54517;SDS011;40423;53.176;6.002;2023-04-25T08:12:36;8.23;;;2.50;;
54517;SDS011;40423;53.176;6.002;2023-04-25T08:15:03;7.35;;;1.80;;
54517;SDS011;40423;53.176;6.002;2023-04-25T08:17:30;11.60;;;1.80;;
54517;SDS011;40423;53.176;6.002;2023-04-25T08:19:56;7.13;;;1.40;;
54517;SDS011;40423;53.176;6.002;2023-04-25T08:22:22;5.68;;;1.08;;
54517;SDS011;40423;53.176;6.002;2023-04-25T08:24:48;10.38;;;2.10;;
54517;SDS011;40423;53.176;6.002;2023-04-25T08:27:13;9.88;;;1.77;;
54517;SDS011;40423;53.176;6.002;2023-04-25T08:29:39;5.53;;;1.65;;
54517;SDS011;40423;53.176;6.002;2023-04-25T08:32:06;8.95;;;1.60;;
54517;SDS011;40423;53.176;6.002;2023-04-25T08:34:32;9.52;;;2.55;;
54517;SDS011;40423;53.176;6.002;2023-04-25T08:36:57;11.75;;;2.22;;
54517;SDS011;40423;53.176;6.002;2023-04-25T08:39:23;15.05;;;1.92;;
54517;SDS011;40423;53.176;6.002;2023-04-25T08:41:49;9.75;;;2.33;;
54517;SDS011;40423;53.176;6.002;2023-04-25T08:44:15;10.38;;;1.92;;
54517;SDS011;40423;53.176;6.002;2023-04-25T08:46:41;10.85;;;1.70;;
54517;SDS011;40423;53.176;6.002;2023-04-25T08:49:10;13.55;;;2.47;;
54517;SDS011;40423;53.176;6.002;2023-04-25T08:51:41;18.92;;;3.55;;
54517;SDS011;40423;53.176;6.002;2023-04-25T08:54:15;10.82;;;1.95;;
54517;SDS011;40423;53.176;6.002;2023-04-25T08:56:44;10.70;;;2.28;;
54517;SDS011;40423;53.176;6.002;2023-04-25T08:59:12;7.53;;;2.13;;
54517;SDS011;40423;53.176;6.002;2023-04-25T09:01:38;9.48;;;1.55;;
54517;SDS011;40423;53.176;6.002;2023-04-25T09:04:04;7.15;;;1.63;;
54517;SDS011;40423;53.176;6.002;2023-04-25T09:06:31;5.78;;;1.67;;
54517;SDS011;40423;53.176;6.002;2023-04-25T09:09:03;6.32;;;1.40;;
54517;SDS011;40423;53.176;6.002;2023-04-25T09:11:31;8.38;;;1.85;;
54517;SDS011;40423;53.176;6.002;2023-04-25T09:14:16;10.50;;;1.63;;
54517;SDS011;40423;53.176;6.002;2023-04-25T09:21:53;12.88;;;2.45;;
54517;SDS011;40423;53.176;6.002;2023-04-25T09:24:42;9.80;;;2.28;;
54517;SDS011;40423;53.176;6.002;2023-04-25T09:27:07;7.60;;;1.67;;
54517;SDS011;40423;53.176;6.002;2023-04-25T09:29:39;11.90;;;1.70;;
54517;SDS011;40423;53.176;6.002;2023-04-25T09:32:22;6.13;;;1.40;;
54517;SDS011;40423;53.176;6.002;2023-04-25T09:34:52;8.07;;;1.40;;
54517;SDS011;40423;53.176;6.002;2023-04-25T09:37:23;9.75;;;1.45;;
54517;SDS011;40423;53.176;6.002;2023-04-25T09:39:56;9.93;;;1.67;;
54517;SDS011;40423;53.176;6.002;2023-04-25T09:42:30;7.57;;;1.65;;
54517;SDS011;40423;53.176;6.002;2023-04-25T09:44:57;7.72;;;1.75;;
54517;SDS011;40423;53.176;6.002;2023-04-25T09:47:24;11.07;;;2.63;;
54517;SDS011;40423;53.176;6.002;2023-04-25T09:49:54;13.52;;;1.98;;
54517;SDS011;40423;53.176;6.002;2023-04-25T09:52:23;10.95;;;2.53;;
54517;SDS011;40423;53.176;6.002;2023-04-25T09:54:50;11.85;;;2.40;;
54517;SDS011;40423;53.176;6.002;2023-04-25T09:57:23;11.73;;;1.90;;
54517;SDS011;40423;53.176;6.002;2023-04-25T09:59:50;10.63;;;2.13;;
54517;SDS011;40423;53.176;6.002;2023-04-25T10:02:23;14.15;;;2.28;;
54517;SDS011;40423;53.176;6.002;2023-04-25T10:04:51;9.05;;;1.98;;
54517;SDS011;40423;53.176;6.002;2023-04-25T10:07:23;7.47;;;1.60;;
54517;SDS011;40423;53.176;6.002;2023-04-25T10:10:02;7.47;;;1.63;;
54517;SDS011;40423;53.176;6.002;2023-04-25T10:12:29;14.18;;;2.00;;
54517;SDS011;40423;53.176;6.002;2023-04-25T10:15:00;12.60;;;1.98;;
54517;SDS011;40423;53.176;6.002;2023-04-25T10:17:27;8.18;;;1.23;;
54517;SDS011;40423;53.176;6.002;2023-04-25T10:19:54;7.97;;;1.80;;
54517;SDS011;40423;53.176;6.002;2023-04-25T10:22:29;12.55;;;2.22;;
54517;SDS011;40423;53.176;6.002;2023-04-25T10:25:01;7.38;;;2.15;;
54517;SDS011;40423;53.176;6.002;2023-04-25T10:27:28;8.18;;;1.73;;
54517;SDS011;40423;53.176;6.002;2023-04-25T10:30:13;10.65;;;2.13;;
54517;SDS011;40423;53.176;6.002;2023-04-25T10:32:43;11.93;;;2.38;;
54517;SDS011;40423;53.176;6.002;2023-04-25T10:35:16;11.25;;;2.08;;
54517;SDS011;40423;53.176;6.002;2023-04-25T10:40:25;9.50;;;2.05;;
54517;SDS011;40423;53.176;6.002;2023-04-25T10:42:52;9.98;;;2.50;;
54517;SDS011;40423;53.176;6.002;2023-04-25T10:45:19;7.88;;;1.67;;
54517;SDS011;40423;53.176;6.002;2023-04-25T10:47:45;9.85;;;1.70;;
54517;SDS011;40423;53.176;6.002;2023-04-25T10:50:11;11.95;;;2.08;;
54517;SDS011;40423;53.176;6.002;2023-04-25T10:52:39;7.13;;;2.25;;
54517;SDS011;40423;53.176;6.002;2023-04-25T10:55:05;11.65;;;1.98;;
54517;SDS011;40423;53.176;6.002;2023-04-25T10:57:32;10.20;;;2.80;;
54517;SDS011;40423;53.176;6.002;2023-04-25T11:00:12;14.23;;;2.17;;
54517;SDS011;40423;53.176;6.002;2023-04-25T11:08:00;10.32;;;1.90;;
54517;SDS011;40423;53.176;6.002;2023-04-25T11:10:28;6.82;;;1.60;;
54517;SDS011;40423;53.176;6.002;2023-04-25T11:12:55;6.55;;;1.83;;
54517;SDS011;40423;53.176;6.002;2023-04-25T11:15:22;9.75;;;2.60;;
54517;SDS011;40423;53.176;6.002;2023-04-25T11:17:48;10.30;;;1.73;;
54517;SDS011;40423;53.176;6.002;2023-04-25T11:20:16;7.07;;;1.92;;
54517;SDS011;40423;53.176;6.002;2023-04-25T11:22:41;8.45;;;1.77;;
54517;SDS011;40423;53.176;6.002;2023-04-25T11:25:10;6.90;;;1.92;;
54517;SDS011;40423;53.176;6.002;2023-04-25T11:27:50;6.53;;;1.45;;
54517;SDS011;40423;53.176;6.002;2023-04-25T11:30:17;4.60;;;1.25;;
54517;SDS011;40423;53.176;6.002;2023-04-25T11:32:44;7.20;;;1.75;;
54517;SDS011;40423;53.176;6.002;2023-04-25T11:35:10;8.40;;;1.50;;
54517;SDS011;40423;53.176;6.002;2023-04-25T11:37:38;11.10;;;1.92;;
54517;SDS011;40423;53.176;6.002;2023-04-25T11:40:08;10.82;;;2.63;;
54517;SDS011;40423;53.176;6.002;2023-04-25T11:42:37;11.90;;;1.50;;
54517;SDS011;40423;53.176;6.002;2023-04-25T11:45:13;10.10;;;1.80;;
54517;SDS011;40423;53.176;6.002;2023-04-25T11:47:39;7.43;;;1.60;;
54517;SDS011;40423;53.176;6.002;2023-04-25T11:50:06;7.50;;;2.03;;
54517;SDS011;40423;53.176;6.002;2023-04-25T11:55:06;12.18;;;1.73;;
54517;SDS011;40423;53.176;6.002;2023-04-25T11:57:33;4.22;;;0.90;;
54517;SDS011;40423;53.176;6.002;2023-04-25T12:00:12;6.63;;;1.40;;
54517;SDS011;40423;53.176;6.002;2023-04-25T12:02:41;13.73;;;2.40;;
54517;SDS011;40423;53.176;6.002;2023-04-25T12:05:10;12.57;;;2.25;;
54517;SDS011;40423;53.176;6.002;2023-04-25T12:07:37;12.63;;;2.35;;
54517;SDS011;40423;53.176;6.002;2023-04-25T12:10:04;16.30;;;2.80;;
54517;SDS011;40423;53.176;6.002;2023-04-25T12:12:35;14.23;;;2.67;;
54517;SDS011;40423;53.176;6.002;2023-04-25T12:15:14;13.45;;;3.03;;
54517;SDS011;40423;53.176;6.002;2023-04-25T12:17:45;10.15;;;1.60;;
54517;SDS011;40423;53.176;6.002;2023-04-25T12:20:13;12.38;;;2.17;;
54517;SDS011;40423;53.176;6.002;2023-04-25T12:22:40;14.88;;;1.90;;
54517;SDS011;40423;53.176;6.002;2023-04-25T12:25:11;11.63;;;2.25;;
54517;SDS011;40423;53.176;6.002;2023-04-25T12:27:38;5.43;;;1.42;;
54517;SDS011;40423;53.176;6.002;2023-04-25T12:30:08;7.78;;;1.50;;
54517;SDS011;40423;53.176;6.002;2023-04-25T12:32:35;7.82;;;2.00;;
54517;SDS011;40423;53.176;6.002;2023-04-25T12:35:02;6.53;;;1.60;;
54517;SDS011;40423;53.176;6.002;2023-04-25T12:37:29;11.75;;;2.05;;
54517;SDS011;40423;53.176;6.002;2023-04-25T12:39:55;8.68;;;1.58;;
54517;SDS011;40423;53.176;6.002;2023-04-25T12:42:21;9.63;;;1.70;;
54517;SDS011;40423;53.176;6.002;2023-04-25T12:44:47;10.60;;;1.63;;
54517;SDS011;40423;53.176;6.002;2023-04-25T12:47:13;9.75;;;2.10;;
54517;SDS011;40423;53.176;6.002;2023-04-25T12:49:39;6.45;;;1.85;;
54517;SDS011;40423;53.176;6.002;2023-04-25T12:52:04;6.68;;;1.38;;
54517;SDS011;40423;53.176;6.002;2023-04-25T12:54:30;6.30;;;1.42;;
54517;SDS011;40423;53.176;6.002;2023-04-25T12:56:56;5.30;;;1.58;;
54517;SDS011;40423;53.176;6.002;2023-04-25T12:59:22;8.65;;;1.55;;
54517;SDS011;40423;53.176;6.002;2023-04-25T13:01:48;9.07;;;2.30;;
54517;SDS011;40423;53.176;6.002;2023-04-25T13:04:14;7.18;;;1.85;;
54517;SDS011;40423;53.176;6.002;2023-04-25T13:06:40;13.38;;;2.08;;
54517;SDS011;40423;53.176;6.002;2023-04-25T13:09:06;12.75;;;1.90;;
54517;SDS011;40423;53.176;6.002;2023-04-25T13:11:32;12.05;;;2.47;;
54517;SDS011;40423;53.176;6.002;2023-04-25T13:13:58;9.35;;;2.40;;
54517;SDS011;40423;53.176;6.002;2023-04-25T13:16:23;6.85;;;1.95;;
54517;SDS011;40423;53.176;6.002;2023-04-25T13:18:49;10.77;;;1.70;;
54517;SDS011;40423;53.176;6.002;2023-04-25T13:21:15;7.38;;;2.00;;
54517;SDS011;40423;53.176;6.002;2023-04-25T13:23:40;8.23;;;2.25;;
54517;SDS011;40423;53.176;6.002;2023-04-25T13:26:08;7.85;;;2.40;;
54517;SDS011;40423;53.176;6.002;2023-04-25T13:28:33;7.82;;;1.63;;
54517;SDS011;40423;53.176;6.002;2023-04-25T13:30:59;11.88;;;2.67;;
54517;SDS011;40423;53.176;6.002;2023-04-25T13:33:25;9.40;;;2.00;;
54517;SDS011;40423;53.176;6.002;2023-04-25T13:35:51;9.98;;;1.83;;
54517;SDS011;40423;53.176;6.002;2023-04-25T13:38:21;9.90;;;2.25;;
54517;SDS011;40423;53.176;6.002;2023-04-25T13:40:49;11.48;;;2.47;;
54517;SDS011;40423;53.176;6.002;2023-04-25T13:43:17;7.43;;;1.50;;
54517;SDS011;40423;53.176;6.002;2023-04-25T13:45:44;6.18;;;1.52;;
54517;SDS011;40423;53.176;6.002;2023-04-25T13:48:10;8.27;;;1.48;;
54517;SDS011;40423;53.176;6.002;2023-04-25T13:50:35;8.65;;;1.88;;
54517;SDS011;40423;53.176;6.002;2023-04-25T13:53:01;8.20;;;2.05;;
54517;SDS011;40423;53.176;6.002;2023-04-25T13:55:27;7.88;;;2.35;;
54517;SDS011;40423;53.176;6.002;2023-04-25T13:57:53;7.18;;;1.75;;
54517;SDS011;40423;53.176;6.002;2023-04-25T14:00:18;10.63;;;1.40;;
54517;SDS011;40423;53.176;6.002;2023-04-25T14:02:45;8.43;;;1.75;;
54517;SDS011;40423;53.176;6.002;2023-04-25T14:05:11;8.23;;;1.75;;
54517;SDS011;40423;53.176;6.002;2023-04-25T14:07:36;5.13;;;1.80;;
54517;SDS011;40423;53.176;6.002;2023-04-25T14:10:03;5.30;;;1.50;;
54517;SDS011;40423;53.176;6.002;2023-04-25T14:12:29;11.07;;;1.85;;
54517;SDS011;40423;53.176;6.002;2023-04-25T14:14:55;11.32;;;2.00;;
54517;SDS011;40423;53.176;6.002;2023-04-25T14:17:21;6.63;;;1.58;;
54517;SDS011;40423;53.176;6.002;2023-04-25T14:19:46;10.55;;;1.80;;
54517;SDS011;40423;53.176;6.002;2023-04-25T14:22:13;8.32;;;1.80;;
54517;SDS011;40423;53.176;6.002;2023-04-25T14:24:42;6.38;;;1.45;;
54517;SDS011;40423;53.176;6.002;2023-04-25T14:27:08;10.32;;;1.95;;
54517;SDS011;40423;53.176;6.002;2023-04-25T14:29:34;10.18;;;1.70;;
54517;SDS011;40423;53.176;6.002;2023-04-25T14:32:00;9.45;;;2.05;;
54517;SDS011;40423;53.176;6.002;2023-04-25T14:34:27;11.13;;;1.85;;
54517;SDS011;40423;53.176;6.002;2023-04-25T14:36:53;13.07;;;2.63;;
54517;SDS011;40423;53.176;6.002;2023-04-25T14:39:18;11.70;;;2.25;;
54517;SDS011;40423;53.176;6.002;2023-04-25T14:41:44;10.38;;;1.95;;
54517;SDS011;40423;53.176;6.002;2023-04-25T14:44:10;11.43;;;2.83;;
54517;SDS011;40423;53.176;6.002;2023-04-25T14:46:36;7.70;;;2.10;;
54517;SDS011;40423;53.176;6.002;2023-04-25T14:49:02;9.85;;;2.03;;
54517;SDS011;40423;53.176;6.002;2023-04-25T14:51:28;7.93;;;1.40;;
54517;SDS011;40423;53.176;6.002;2023-04-25T14:53:54;7.50;;;2.00;;
54517;SDS011;40423;53.176;6.002;2023-04-25T14:56:20;7.57;;;2.22;;
54517;SDS011;40423;53.176;6.002;2023-04-25T14:58:46;9.18;;;1.88;;